createdAt,value
2018-12-25T00:00:42.096Z,18.80
2018-12-25T00:03:10.917Z,18.80
2018-12-25T00:05:39.711Z,18.80
2018-12-25T00:08:08.492Z,18.80
2018-12-25T00:10:37.359Z,18.80
2018-12-25T00:13:06.116Z,18.80
2018-12-25T00:15:35.030Z,18.80
2018-12-25T00:18:03.805Z,18.70
2018-12-25T00:20:33.426Z,18.70
2018-12-25T00:23:02.412Z,18.80
2018-12-25T00:25:31.518Z,18.80
2018-12-25T00:28:00.284Z,18.80
2018-12-25T00:30:29.159Z,18.80
2018-12-25T00:32:57.918Z,18.80
2018-12-25T00:35:26.752Z,18.80
2018-12-25T00:37:55.540Z,18.80
2018-12-25T00:40:24.413Z,18.80
2018-12-25T00:42:53.276Z,18.80
2018-12-25T00:45:22.050Z,18.80
2018-12-25T00:47:50.808Z,18.80
2018-12-25T00:50:19.587Z,18.80
2018-12-25T00:52:48.363Z,18.80
2018-12-25T00:55:17.118Z,18.80
2018-12-25T00:57:45.896Z,18.70
2018-12-25T01:00:14.680Z,18.70
2018-12-25T01:02:43.507Z,18.80
2018-12-25T01:05:12.325Z,18.80
2018-12-25T01:07:41.148Z,18.80
2018-12-25T01:10:09.970Z,18.80
2018-12-25T01:12:38.800Z,18.80
2018-12-25T01:15:07.681Z,18.80
2018-12-25T01:17:36.475Z,18.80
2018-12-25T01:20:05.523Z,18.80
2018-12-25T01:22:34.268Z,18.70
2018-12-25T01:25:03.051Z,18.80
2018-12-25T01:27:31.820Z,18.80
2018-12-25T01:30:00.703Z,18.80
2018-12-25T01:32:29.527Z,18.80
2018-12-25T01:34:58.279Z,18.80
2018-12-25T01:37:27.031Z,18.70
2018-12-25T01:39:55.876Z,18.70
2018-12-25T01:42:24.695Z,18.80
2018-12-25T01:44:53.481Z,18.80
2018-12-25T01:47:22.222Z,18.80
2018-12-25T01:49:50.999Z,18.80
2018-12-25T01:52:20.615Z,18.80
2018-12-25T01:54:49.407Z,18.80
2018-12-25T01:57:18.168Z,18.80
2018-12-25T01:59:46.927Z,18.70
2018-12-25T02:02:15.687Z,18.80
2018-12-25T02:04:44.431Z,18.80
2018-12-25T02:07:13.198Z,18.80
2018-12-25T02:09:42.018Z,18.80
2018-12-25T02:12:10.761Z,18.80
2018-12-25T02:14:40.850Z,18.70
2018-12-25T02:17:09.604Z,18.70
2018-12-25T02:19:40.354Z,18.70
2018-12-25T02:22:08.986Z,18.70
2018-12-25T02:24:37.723Z,18.80
2018-12-25T02:27:06.561Z,18.80
2018-12-25T02:29:35.307Z,18.70
2018-12-25T02:32:04.087Z,18.70
2018-12-25T02:34:32.819Z,18.70
2018-12-25T02:37:01.575Z,18.70
2018-12-25T02:39:30.468Z,18.80
2018-12-25T02:41:59.196Z,18.80
2018-12-25T02:44:27.941Z,18.80
2018-12-25T02:46:56.775Z,18.80
2018-12-25T02:49:25.681Z,18.80
2018-12-25T02:51:54.390Z,18.80
2018-12-25T02:54:23.155Z,18.80
2018-12-25T02:56:51.920Z,18.80
2018-12-25T02:59:20.675Z,18.80
2018-12-25T03:01:49.553Z,18.80
2018-12-25T03:04:18.430Z,18.80
2018-12-25T03:06:47.245Z,18.80
2018-12-25T03:09:16.009Z,18.80
2018-12-25T03:11:44.768Z,18.70
2018-12-25T03:14:13.588Z,18.70
2018-12-25T03:16:42.419Z,18.70
2018-12-25T03:19:11.253Z,18.70
2018-12-25T03:21:39.990Z,18.70
2018-12-25T03:24:08.820Z,18.70
2018-12-25T03:26:37.586Z,18.70
2018-12-25T03:29:06.320Z,18.80
2018-12-25T03:31:35.075Z,18.70
2018-12-25T03:34:03.820Z,18.70
2018-12-25T03:36:32.641Z,18.70
2018-12-25T03:39:01.372Z,18.70
2018-12-25T03:41:30.145Z,18.70
2018-12-25T03:43:58.891Z,18.70
2018-12-25T03:46:27.683Z,18.70
2018-12-25T03:48:56.442Z,18.70
2018-12-25T03:51:25.284Z,18.70
2018-12-25T03:53:54.032Z,18.70
2018-12-25T03:56:22.869Z,18.70
2018-12-25T03:58:51.625Z,18.70
2018-12-25T04:01:20.395Z,18.70
2018-12-25T04:03:49.137Z,18.70
2018-12-25T04:06:18.124Z,18.70
2018-12-25T04:08:46.870Z,18.70
2018-12-25T04:11:15.614Z,18.70
2018-12-25T04:13:44.368Z,18.70
2018-12-25T04:16:13.221Z,18.70
2018-12-25T04:18:42.040Z,18.70
2018-12-25T04:21:10.791Z,18.70
2018-12-25T04:23:39.497Z,18.70
2018-12-25T04:26:08.245Z,18.70
2018-12-25T04:28:37.032Z,18.70
2018-12-25T04:31:05.764Z,18.70
2018-12-25T04:33:34.626Z,18.70
2018-12-25T04:36:03.364Z,18.70
2018-12-25T04:38:32.387Z,18.70
2018-12-25T04:41:01.111Z,18.80
2018-12-25T04:43:29.873Z,18.80
2018-12-25T04:45:58.621Z,18.80
2018-12-25T04:48:27.364Z,18.80
2018-12-25T04:50:56.124Z,18.80
2018-12-25T04:53:24.876Z,18.80
2018-12-25T04:55:53.610Z,18.70
2018-12-25T04:58:22.393Z,18.80
2018-12-25T05:00:51.211Z,18.70
2018-12-25T05:03:19.951Z,18.70
2018-12-25T05:05:48.691Z,18.70
2018-12-25T05:08:17.523Z,18.70
2018-12-25T05:10:46.294Z,18.70
2018-12-25T05:13:15.025Z,18.70
2018-12-25T05:15:43.760Z,18.70
2018-12-25T05:18:12.658Z,18.70
2018-12-25T05:20:41.405Z,18.80
2018-12-25T05:23:10.146Z,18.80
2018-12-25T05:25:38.889Z,18.80
2018-12-25T05:28:07.646Z,18.80
2018-12-25T05:30:36.400Z,18.80
2018-12-25T05:33:05.118Z,18.80
2018-12-25T05:35:33.864Z,18.80
2018-12-25T05:38:02.625Z,18.80
2018-12-25T05:40:31.352Z,18.80
2018-12-25T05:43:00.105Z,18.80
2018-12-25T05:45:28.934Z,18.90
2018-12-25T05:47:57.679Z,18.80
2018-12-25T05:50:26.420Z,18.80
2018-12-25T05:52:55.172Z,18.80
2018-12-25T05:55:24.011Z,18.90
2018-12-25T05:57:52.760Z,18.90
2018-12-25T06:00:21.523Z,18.90
2018-12-25T06:02:50.265Z,18.90
2018-12-25T06:05:19.022Z,18.90
2018-12-25T06:07:47.764Z,18.90
2018-12-25T06:10:16.508Z,18.90
2018-12-25T06:12:45.325Z,18.90
2018-12-25T06:15:14.085Z,18.90
2018-12-25T06:17:42.847Z,18.90
2018-12-25T06:20:11.604Z,18.90
2018-12-25T06:22:40.364Z,18.90
2018-12-25T06:25:09.119Z,18.80
2018-12-25T06:27:37.842Z,18.80
2018-12-25T06:30:06.876Z,18.80
2018-12-25T06:32:35.622Z,18.80
2018-12-25T06:35:04.418Z,18.80
2018-12-25T06:37:33.180Z,18.80
2018-12-25T06:40:01.983Z,18.80
2018-12-25T06:42:30.735Z,18.80
2018-12-25T06:44:59.454Z,18.80
2018-12-25T06:47:28.239Z,18.80
2018-12-25T06:49:56.991Z,18.80
2018-12-25T06:52:25.750Z,18.80
2018-12-25T06:54:54.496Z,18.80
2018-12-25T06:57:23.242Z,18.80
2018-12-25T06:59:52.084Z,18.80
2018-12-25T07:02:20.901Z,18.80
2018-12-25T07:04:49.769Z,18.80
2018-12-25T07:07:18.553Z,18.80
2018-12-25T07:09:47.303Z,18.80
2018-12-25T07:12:16.141Z,18.80
2018-12-25T07:14:44.897Z,18.80
2018-12-25T07:17:13.663Z,18.90
2018-12-25T07:19:42.433Z,18.90
2018-12-25T07:22:11.213Z,18.90
2018-12-25T07:24:39.983Z,18.90
2018-12-25T07:27:08.797Z,18.90
2018-12-25T07:29:37.551Z,18.80
2018-12-25T07:32:06.303Z,18.80
2018-12-25T07:34:35.047Z,18.90
2018-12-25T07:37:03.798Z,18.90
2018-12-25T07:39:32.635Z,18.90
2018-12-25T07:42:01.449Z,18.90
2018-12-25T07:44:30.184Z,18.90
2018-12-25T07:46:58.929Z,18.80
2018-12-25T07:49:27.753Z,18.80
2018-12-25T07:51:56.492Z,18.80
2018-12-25T07:54:25.254Z,18.90
2018-12-25T07:56:54.109Z,18.90
2018-12-25T07:59:22.850Z,18.90
2018-12-25T08:01:51.594Z,18.90
2018-12-25T08:04:20.355Z,18.90
2018-12-25T08:06:49.183Z,18.90
2018-12-25T08:09:17.951Z,18.90
2018-12-25T08:11:46.711Z,18.90
2018-12-25T08:14:15.464Z,18.90
2018-12-25T08:16:44.229Z,18.90
2018-12-25T08:19:12.983Z,18.90
2018-12-25T08:21:41.745Z,18.90
2018-12-25T08:24:10.523Z,18.80
2018-12-25T08:26:39.407Z,18.80
2018-12-25T08:29:08.185Z,18.80
2018-12-25T08:31:36.982Z,18.80
2018-12-25T08:34:05.807Z,18.80
2018-12-25T08:36:36.471Z,18.80
2018-12-25T08:39:07.078Z,18.80
2018-12-25T08:41:35.835Z,18.80
2018-12-25T08:44:04.892Z,18.80
2018-12-25T08:46:33.667Z,18.80
2018-12-25T08:49:02.452Z,18.80
2018-12-25T08:51:37.668Z,18.80
2018-12-25T08:54:01.689Z,18.80
2018-12-25T08:56:30.509Z,18.80
2018-12-25T08:58:59.275Z,18.80
2018-12-25T09:01:28.139Z,18.90
2018-12-25T09:03:56.884Z,18.80
2018-12-25T09:06:25.647Z,18.80
2018-12-25T09:08:54.395Z,18.90
2018-12-25T09:11:23.144Z,18.90
2018-12-25T09:13:51.922Z,18.90
2018-12-25T09:16:20.763Z,18.90
2018-12-25T09:18:49.543Z,18.90
2018-12-25T09:21:18.363Z,18.90
2018-12-25T09:23:47.164Z,18.90
2018-12-25T09:26:16.083Z,18.90
2018-12-25T09:28:44.857Z,18.80
2018-12-25T09:31:13.621Z,18.90
2018-12-25T09:33:42.411Z,18.80
2018-12-25T09:36:11.175Z,18.80
2018-12-25T09:38:40.016Z,18.80
2018-12-25T09:41:10.330Z,18.80
2018-12-25T09:43:39.092Z,18.80
2018-12-25T09:46:07.870Z,18.80
2018-12-25T09:48:36.625Z,18.80
2018-12-25T09:51:05.395Z,18.80
2018-12-25T09:53:34.248Z,18.80
2018-12-25T09:56:03.007Z,18.90
2018-12-25T09:58:31.764Z,18.90
2018-12-25T10:01:00.529Z,18.90
2018-12-25T10:03:29.308Z,18.90
2018-12-25T10:06:03.166Z,18.90
2018-12-25T10:08:31.949Z,18.90
2018-12-25T10:11:00.724Z,18.90
2018-12-25T10:13:29.491Z,18.90
2018-12-25T10:15:58.262Z,18.90
2018-12-25T10:18:27.118Z,18.90
2018-12-25T10:20:55.902Z,18.90
2018-12-25T10:23:24.764Z,18.90
2018-12-25T10:25:53.523Z,18.90
2018-12-25T10:28:22.298Z,18.90
2018-12-25T10:30:51.206Z,18.90
2018-12-25T10:33:20.040Z,19.00
2018-12-25T10:35:48.898Z,19.00
2018-12-25T10:38:17.739Z,19.00
2018-12-25T10:40:46.524Z,18.90
2018-12-25T10:43:15.303Z,18.90
2018-12-25T10:45:44.247Z,18.90
2018-12-25T10:48:13.088Z,18.90
2018-12-25T10:50:41.964Z,18.90
2018-12-25T10:53:10.907Z,19.00
2018-12-25T10:55:39.799Z,19.00
2018-12-25T10:58:08.666Z,19.00
2018-12-25T11:00:45.691Z,18.90
2018-12-25T11:03:14.591Z,19.00
2018-12-25T11:05:43.368Z,19.00
2018-12-25T11:08:12.123Z,19.00
2018-12-25T11:10:40.962Z,19.00
2018-12-25T11:13:09.733Z,19.10
2018-12-25T11:15:38.484Z,19.00
2018-12-25T11:18:07.321Z,19.10
2018-12-25T11:20:36.094Z,19.10
2018-12-25T11:23:04.866Z,19.00
2018-12-25T11:25:33.614Z,19.00
2018-12-25T11:28:02.616Z,19.10
2018-12-25T11:30:31.453Z,19.00
2018-12-25T11:33:00.276Z,19.00
2018-12-25T11:35:29.269Z,19.00
2018-12-25T11:37:58.083Z,19.00
2018-12-25T11:40:26.861Z,19.00
2018-12-25T11:42:55.616Z,18.90
2018-12-25T11:45:26.650Z,19.00
2018-12-25T11:47:55.403Z,19.00
2018-12-25T11:50:24.212Z,18.90
2018-12-25T11:52:52.994Z,19.00
2018-12-25T11:55:21.763Z,18.90
2018-12-25T11:57:50.529Z,18.90
2018-12-25T12:00:19.372Z,18.90
2018-12-25T12:02:48.133Z,18.90
2018-12-25T12:05:16.978Z,18.90
2018-12-25T12:07:45.758Z,18.90
2018-12-25T12:10:14.538Z,18.90
2018-12-25T12:12:43.302Z,18.90
2018-12-25T12:15:12.091Z,18.90
2018-12-25T12:17:40.886Z,18.90
2018-12-25T12:20:09.664Z,18.80
2018-12-25T12:22:38.444Z,18.90
2018-12-25T12:25:07.222Z,18.80
2018-12-25T12:27:37.363Z,18.80
2018-12-25T12:30:06.484Z,18.80
2018-12-25T12:32:35.243Z,18.80
2018-12-25T12:35:04.025Z,18.80
2018-12-25T12:37:33.020Z,18.80
2018-12-25T12:40:02.066Z,18.80
2018-12-25T12:42:30.804Z,18.90
2018-12-25T12:44:59.656Z,18.90
2018-12-25T12:47:28.416Z,18.90
2018-12-25T12:49:57.278Z,18.90
2018-12-25T12:52:26.069Z,18.90
2018-12-25T12:54:54.928Z,18.90
2018-12-25T12:57:23.728Z,18.90
2018-12-25T12:59:52.604Z,18.90
2018-12-25T13:02:21.382Z,18.90
2018-12-25T13:04:50.188Z,18.90
2018-12-25T13:07:18.959Z,18.90
2018-12-25T13:09:47.718Z,18.90
2018-12-25T13:12:16.558Z,18.90
2018-12-25T13:14:45.344Z,18.90
2018-12-25T13:17:14.190Z,18.90
2018-12-25T13:19:42.994Z,18.90
2018-12-25T13:22:11.809Z,18.90
2018-12-25T13:24:40.591Z,18.90
2018-12-25T13:27:09.336Z,18.90
2018-12-25T13:29:38.182Z,18.90
2018-12-25T13:32:07.030Z,18.90
2018-12-25T13:34:35.859Z,18.90
2018-12-25T13:37:04.648Z,18.90
2018-12-25T13:39:33.412Z,18.90
2018-12-25T13:42:02.162Z,18.90
2018-12-25T13:44:31.001Z,18.90
2018-12-25T13:46:59.780Z,18.90
2018-12-25T13:49:28.572Z,18.90
2018-12-25T13:51:57.343Z,18.90
2018-12-25T13:54:26.264Z,18.90
2018-12-25T13:56:55.417Z,18.90
2018-12-25T13:59:24.264Z,18.90
2018-12-25T14:01:53.115Z,18.90
2018-12-25T14:04:22.069Z,18.90
2018-12-25T14:06:50.904Z,18.90
2018-12-25T14:09:19.818Z,18.90
2018-12-25T14:11:48.590Z,19.00
2018-12-25T14:14:17.349Z,18.90
2018-12-25T14:16:46.119Z,18.90
2018-12-25T14:19:14.951Z,19.00
2018-12-25T14:21:43.802Z,19.00
2018-12-25T14:24:12.588Z,19.00
2018-12-25T14:26:41.352Z,19.00
2018-12-25T14:29:10.140Z,19.00
2018-12-25T14:31:38.924Z,19.00
2018-12-25T14:34:07.694Z,19.00
2018-12-25T14:36:36.544Z,19.00
2018-12-25T14:39:07.580Z,19.00
2018-12-25T14:41:36.354Z,19.00
2018-12-25T14:44:05.635Z,19.10
2018-12-25T14:46:34.592Z,19.10
2018-12-25T14:49:03.350Z,19.10
2018-12-25T14:51:32.114Z,19.10
2018-12-25T14:54:00.902Z,19.00
2018-12-25T14:56:29.670Z,19.10
2018-12-25T14:58:58.462Z,19.10
2018-12-25T15:01:27.237Z,19.10
2018-12-25T15:03:56.003Z,19.10
2018-12-25T15:06:24.777Z,19.10
2018-12-25T15:08:53.540Z,19.00
2018-12-25T15:11:22.319Z,19.00
2018-12-25T15:13:51.064Z,19.00
2018-12-25T15:16:19.823Z,19.10
2018-12-25T15:18:48.736Z,19.10
2018-12-25T15:21:17.558Z,19.10
2018-12-25T15:23:46.395Z,19.10
2018-12-25T15:26:15.165Z,19.10
2018-12-25T15:28:43.940Z,19.00
2018-12-25T15:31:12.790Z,19.10
2018-12-25T15:33:41.547Z,19.00
2018-12-25T15:36:10.395Z,19.00
2018-12-25T15:38:39.155Z,19.10
2018-12-25T15:41:07.999Z,19.00
2018-12-25T15:43:36.825Z,19.00
2018-12-25T15:46:05.611Z,19.00
2018-12-25T15:48:34.386Z,19.00
2018-12-25T15:51:03.204Z,19.00
2018-12-25T15:53:36.884Z,19.00
2018-12-25T15:56:02.550Z,19.00
2018-12-25T15:58:31.344Z,19.00
2018-12-25T16:01:00.098Z,19.00
2018-12-25T16:03:28.883Z,19.00
2018-12-25T16:05:57.661Z,19.00
2018-12-25T16:08:26.433Z,19.00
2018-12-25T16:10:55.197Z,19.00
2018-12-25T16:13:23.949Z,19.10
2018-12-25T16:15:52.817Z,19.10
2018-12-25T16:18:21.605Z,19.10
2018-12-25T16:20:50.438Z,19.10
2018-12-25T16:23:19.193Z,19.10
2018-12-25T16:25:48.025Z,19.10
2018-12-25T16:28:16.873Z,19.00
2018-12-25T16:30:45.781Z,19.10
2018-12-25T16:33:14.571Z,19.10
2018-12-25T16:35:43.348Z,19.10
2018-12-25T16:38:12.131Z,19.10
2018-12-25T16:40:40.947Z,19.10
2018-12-25T16:43:09.792Z,19.00
2018-12-25T16:45:38.587Z,19.00
2018-12-25T16:48:07.456Z,19.10
2018-12-25T16:50:36.363Z,19.10
2018-12-25T16:53:05.103Z,19.10
2018-12-25T16:55:33.956Z,19.10
2018-12-25T16:58:02.729Z,19.10
2018-12-25T17:00:32.279Z,19.10
2018-12-25T17:03:01.165Z,19.10
2018-12-25T17:05:29.935Z,19.10
2018-12-25T17:07:58.760Z,19.10
2018-12-25T17:10:27.510Z,19.10
2018-12-25T17:12:56.358Z,19.10
2018-12-25T17:15:25.274Z,19.20
2018-12-25T17:17:54.168Z,19.10
2018-12-25T17:20:22.937Z,19.20
2018-12-25T17:22:51.786Z,19.10
2018-12-25T17:25:20.587Z,19.10
2018-12-25T17:27:50.160Z,19.10
2018-12-25T17:30:19.007Z,19.10
2018-12-25T17:32:47.771Z,19.10
2018-12-25T17:35:16.528Z,19.10
2018-12-25T17:37:45.392Z,19.10
2018-12-25T17:40:14.158Z,19.00
2018-12-25T17:42:43.014Z,19.00
2018-12-25T17:45:11.794Z,19.00
2018-12-25T17:47:40.570Z,19.00
2018-12-25T17:50:09.438Z,19.00
2018-12-25T17:52:38.222Z,19.00
2018-12-25T17:55:07.090Z,19.00
2018-12-25T17:57:35.928Z,19.00
2018-12-25T18:00:04.908Z,19.00
2018-12-25T18:02:33.758Z,19.00
2018-12-25T18:05:02.783Z,18.90
2018-12-25T18:07:31.641Z,18.90
2018-12-25T18:10:00.568Z,19.00
2018-12-25T18:12:29.453Z,19.00
2018-12-25T18:14:58.317Z,19.00
2018-12-25T18:17:27.126Z,19.00
2018-12-25T18:19:55.992Z,19.00
2018-12-25T18:22:26.175Z,19.00
2018-12-25T18:24:55.020Z,19.00
2018-12-25T18:27:23.813Z,19.00
2018-12-25T18:29:52.634Z,19.00
2018-12-25T18:32:21.443Z,19.10
2018-12-25T18:34:50.336Z,19.10
2018-12-25T18:37:19.283Z,19.10
2018-12-25T18:39:56.076Z,19.10
2018-12-25T18:42:24.859Z,19.10
2018-12-25T18:44:53.816Z,19.10
2018-12-25T18:47:22.682Z,19.10
2018-12-25T18:49:51.480Z,19.10
2018-12-25T18:52:20.366Z,19.10
2018-12-25T18:54:49.258Z,19.10
2018-12-25T18:57:18.081Z,19.10
2018-12-25T18:59:47.106Z,19.10
2018-12-25T19:02:15.948Z,19.10
2018-12-25T19:04:44.755Z,19.10
2018-12-25T19:07:13.654Z,19.10
2018-12-25T19:09:42.525Z,19.10
2018-12-25T19:12:11.349Z,19.00
2018-12-25T19:14:49.596Z,19.00
2018-12-25T19:17:18.591Z,19.00
2018-12-25T19:19:47.476Z,19.10
2018-12-25T19:22:16.358Z,19.20
2018-12-25T19:24:45.240Z,19.20
2018-12-25T19:27:14.129Z,19.30
2018-12-25T19:29:43.067Z,19.40
2018-12-25T19:32:11.986Z,19.40
2018-12-25T19:34:40.774Z,19.50
2018-12-25T19:37:09.648Z,19.60
2018-12-25T19:39:38.598Z,19.60
2018-12-25T19:42:07.550Z,19.60
2018-12-25T19:44:38.980Z,19.60
2018-12-25T19:47:07.859Z,19.50
2018-12-25T19:49:36.717Z,19.40
2018-12-25T19:52:05.549Z,19.50
2018-12-25T19:54:34.570Z,19.40
2018-12-25T19:57:03.438Z,19.30
2018-12-25T19:59:32.423Z,19.30
2018-12-25T20:02:01.525Z,19.20
2018-12-25T20:04:57.582Z,19.20
2018-12-25T20:08:12.612Z,19.30
2018-12-25T20:11:31.622Z,19.30
2018-12-25T20:14:45.472Z,19.30
2018-12-25T20:17:40.822Z,19.20
2018-12-25T20:21:06.212Z,19.20
2018-12-25T20:24:00.173Z,19.20
2018-12-25T20:27:06.641Z,19.20
2018-12-25T20:30:02.805Z,19.20
2018-12-25T20:33:30.880Z,19.20
2018-12-25T20:36:41.852Z,19.20
2018-12-25T20:39:28.471Z,19.20
2018-12-25T20:42:26.457Z,19.20
2018-12-25T20:45:51.842Z,19.20
2018-12-25T20:48:57.192Z,19.20
2018-12-25T20:51:55.718Z,19.30
2018-12-25T20:55:26.849Z,19.20
2018-12-25T20:58:18.254Z,19.20
2018-12-25T21:01:36.135Z,19.20
2018-12-25T21:04:43.582Z,19.20
2018-12-25T21:07:55.443Z,19.20
2018-12-25T21:11:30.704Z,19.20
2018-12-25T21:14:54.828Z,19.20
2018-12-25T21:18:23.166Z,19.20
2018-12-25T21:21:27.706Z,19.20
2018-12-25T21:24:32.458Z,19.20
2018-12-25T21:27:33.712Z,19.20
2018-12-25T21:30:07.903Z,19.10
2018-12-25T21:32:39.458Z,19.10
2018-12-25T21:35:20.739Z,19.10
2018-12-25T21:37:50.532Z,19.10
2018-12-25T21:40:19.906Z,19.20
2018-12-25T21:42:48.934Z,19.20
2018-12-25T21:45:17.929Z,19.20
2018-12-25T21:47:47.002Z,19.10
2018-12-25T21:50:16.059Z,19.10
2018-12-25T21:52:45.925Z,19.10
2018-12-25T21:55:18.957Z,19.10
2018-12-25T21:57:45.791Z,19.10
2018-12-25T22:00:17.295Z,19.10
2018-12-25T22:02:46.667Z,19.10
2018-12-25T22:05:17.697Z,19.10
2018-12-25T22:07:46.875Z,19.10
2018-12-25T22:10:16.200Z,19.10
2018-12-25T22:12:45.203Z,19.10
2018-12-25T22:15:14.236Z,19.10
2018-12-25T22:17:43.531Z,19.10
2018-12-25T22:20:22.931Z,19.10
2018-12-25T22:22:51.897Z,19.00
2018-12-25T22:25:27.092Z,19.00
2018-12-25T22:27:51.566Z,19.00
2018-12-25T22:30:22.254Z,19.00
2018-12-25T22:32:51.296Z,19.10
2018-12-25T22:35:20.312Z,19.00
2018-12-25T22:37:49.393Z,19.10
2018-12-25T22:40:18.480Z,19.10
2018-12-25T22:42:47.414Z,19.10
2018-12-25T22:45:16.641Z,19.10
2018-12-25T22:47:45.633Z,19.10
2018-12-25T22:50:14.652Z,19.00
2018-12-25T22:52:43.722Z,19.10
2018-12-25T22:55:12.797Z,19.10
2018-12-25T22:57:41.775Z,19.10
2018-12-25T23:00:12.764Z,19.10
2018-12-25T23:02:44.189Z,19.00
2018-12-25T23:05:13.077Z,19.00
2018-12-25T23:07:42.034Z,19.00
2018-12-25T23:10:10.946Z,19.00
2018-12-25T23:12:39.759Z,19.00
2018-12-25T23:15:09.225Z,19.10
2018-12-25T23:17:38.015Z,19.00
2018-12-25T23:20:06.975Z,19.10
2018-12-25T23:22:35.834Z,19.00
2018-12-25T23:25:05.069Z,19.00
2018-12-25T23:27:33.853Z,19.00
2018-12-25T23:30:02.707Z,19.00
2018-12-25T23:32:31.545Z,18.90
2018-12-25T23:35:00.364Z,18.90
2018-12-25T23:37:29.276Z,18.90
2018-12-25T23:39:58.043Z,18.90
2018-12-25T23:42:26.906Z,18.90
2018-12-25T23:44:55.721Z,18.80
2018-12-25T23:47:24.503Z,18.90
2018-12-25T23:49:53.274Z,18.90
2018-12-25T23:52:22.065Z,18.90
2018-12-25T23:54:50.927Z,18.90
2018-12-25T23:57:19.685Z,18.90
2018-12-25T23:59:48.507Z,18.90
